createdAt,value
2022-12-25T00:01:10.216Z,5.75
2022-12-25T00:03:37.705Z,5.70
2022-12-25T00:06:05.421Z,5.71
2022-12-25T00:08:33.005Z,5.77
2022-12-25T00:11:03.850Z,5.76
2022-12-25T00:13:31.735Z,5.75
2022-12-25T00:15:59.118Z,5.73
2022-12-25T00:18:26.502Z,5.79
2022-12-25T00:20:57.463Z,5.78
2022-12-25T00:23:24.792Z,5.78
2022-12-25T00:25:52.531Z,5.81
2022-12-25T00:28:23.040Z,5.96
2022-12-25T00:30:50.432Z,6.03
2022-12-25T00:33:17.875Z,6.11
2022-12-25T00:35:45.156Z,6.09
2022-12-25T00:38:12.460Z,6.13
2022-12-25T00:40:43.641Z,6.06
2022-12-25T00:43:11.210Z,6.03
2022-12-25T00:45:39.778Z,5.98
2022-12-25T00:48:07.043Z,5.98
2022-12-25T00:50:34.169Z,5.92
2022-12-25T00:53:01.522Z,5.88
2022-12-25T00:55:30.520Z,5.87
2022-12-25T00:57:58.958Z,5.82
2022-12-25T01:00:26.208Z,5.84
2022-12-25T01:02:54.953Z,5.77
2022-12-25T01:05:22.240Z,5.80
2022-12-25T01:07:49.572Z,5.80
2022-12-25T01:10:16.900Z,5.82
2022-12-25T01:12:44.179Z,5.82
2022-12-25T01:15:12.718Z,5.79
2022-12-25T01:17:40.183Z,5.78
2022-12-25T01:20:10.530Z,5.75
2022-12-25T01:22:37.838Z,5.75
2022-12-25T01:25:05.594Z,5.72
2022-12-25T01:27:33.211Z,5.69
2022-12-25T01:30:00.564Z,5.71
2022-12-25T01:32:28.224Z,5.66
2022-12-25T01:34:56.438Z,5.62
2022-12-25T01:37:25.609Z,5.59
2022-12-25T01:39:52.796Z,5.56
2022-12-25T01:42:21.913Z,5.66
2022-12-25T01:45:39.668Z,5.61
2022-12-25T01:48:11.548Z,5.56
2022-12-25T01:50:42.552Z,5.54
2022-12-25T01:53:11.853Z,5.51
2022-12-25T01:55:41.784Z,5.51
2022-12-25T01:58:09.949Z,5.52
2022-12-25T02:00:37.243Z,5.51
2022-12-25T02:03:05.417Z,5.49
2022-12-25T02:05:35.025Z,5.45
2022-12-25T02:08:07.667Z,5.42
2022-12-25T02:10:36.582Z,5.37
2022-12-25T02:13:03.823Z,5.36
2022-12-25T02:15:40.262Z,5.35
2022-12-25T02:18:15.639Z,5.37
2022-12-25T02:21:06.341Z,5.34
2022-12-25T02:23:46.421Z,5.25
2022-12-25T02:26:44.636Z,5.24
2022-12-25T02:29:22.984Z,5.19
2022-12-25T02:31:57.913Z,5.13
2022-12-25T02:34:35.428Z,5.12
2022-12-25T02:37:07.539Z,5.10
2022-12-25T02:39:50.932Z,5.10
2022-12-25T02:42:24.153Z,5.08
2022-12-25T02:44:53.221Z,5.14
2022-12-25T02:47:22.425Z,5.21
2022-12-25T02:49:51.392Z,5.29
2022-12-25T02:52:21.101Z,5.30
2022-12-25T02:54:54.481Z,5.37
2022-12-25T02:57:27.570Z,5.36
2022-12-25T03:00:00.036Z,5.42
2022-12-25T03:02:30.881Z,5.51
2022-12-25T03:05:01.635Z,5.48
2022-12-25T03:07:30.728Z,5.54
2022-12-25T03:10:03.589Z,5.56
2022-12-25T03:12:46.273Z,5.52
2022-12-25T03:15:16.298Z,5.54
2022-12-25T03:17:43.627Z,5.49
2022-12-25T03:20:11.493Z,5.46
2022-12-25T03:22:42.382Z,5.53
2022-12-25T03:25:10.287Z,5.55
2022-12-25T03:27:39.354Z,5.51
2022-12-25T03:30:08.261Z,5.46
2022-12-25T03:32:42.759Z,5.39
2022-12-25T03:35:18.956Z,5.33
2022-12-25T03:38:04.236Z,5.30
2022-12-25T03:40:37.008Z,5.22
2022-12-25T03:43:17.215Z,5.24
2022-12-25T03:45:51.665Z,5.24
2022-12-25T03:48:20.886Z,5.24
2022-12-25T03:50:53.950Z,5.23
2022-12-25T03:53:27.253Z,5.26
2022-12-25T03:55:56.268Z,5.25
2022-12-25T03:58:25.201Z,5.12
2022-12-25T04:00:52.744Z,5.05
2022-12-25T04:03:21.521Z,5.06
2022-12-25T04:05:48.885Z,5.05
2022-12-25T04:08:16.065Z,5.05
2022-12-25T04:10:44.515Z,5.01
2022-12-25T04:13:11.766Z,5.01
2022-12-25T04:15:39.044Z,5.01
2022-12-25T04:18:06.334Z,5.00
2022-12-25T04:20:34.950Z,4.99
2022-12-25T04:23:02.260Z,4.98
2022-12-25T04:25:29.540Z,4.96
2022-12-25T04:28:01.286Z,4.96
2022-12-25T04:30:28.610Z,4.97
2022-12-25T04:32:57.918Z,4.98
2022-12-25T04:35:25.101Z,4.96
2022-12-25T04:37:53.708Z,4.95
2022-12-25T04:40:21.097Z,4.98
2022-12-25T04:42:50.071Z,4.99
2022-12-25T04:45:17.853Z,4.97
2022-12-25T04:47:45.068Z,4.98
2022-12-25T04:50:12.352Z,4.98
2022-12-25T04:52:40.792Z,4.96
2022-12-25T04:55:10.698Z,4.91
2022-12-25T04:57:38.013Z,4.92
2022-12-25T05:00:06.865Z,4.90
2022-12-25T05:02:34.685Z,4.89
2022-12-25T05:05:02.212Z,4.86
2022-12-25T05:07:29.421Z,4.85
2022-12-25T05:09:56.836Z,4.87
2022-12-25T05:12:25.487Z,4.86
2022-12-25T05:14:52.735Z,4.86
2022-12-25T05:17:20.017Z,4.87
2022-12-25T05:19:47.320Z,4.85
2022-12-25T05:22:14.669Z,4.84
2022-12-25T05:24:41.920Z,4.80
2022-12-25T05:27:09.110Z,4.84
2022-12-25T05:29:37.693Z,4.98
2022-12-25T05:32:05.265Z,5.03
2022-12-25T05:34:32.718Z,5.07
2022-12-25T05:36:59.920Z,5.16
2022-12-25T05:39:27.221Z,5.15
2022-12-25T05:41:54.493Z,5.13
2022-12-25T05:44:21.729Z,5.18
2022-12-25T05:46:50.311Z,5.27
2022-12-25T05:49:17.522Z,5.27
2022-12-25T05:51:44.863Z,5.33
2022-12-25T05:54:12.181Z,5.39
2022-12-25T05:56:39.422Z,5.38
2022-12-25T05:59:06.749Z,5.41
2022-12-25T06:01:34.120Z,5.38
2022-12-25T06:04:05.754Z,5.31
2022-12-25T06:06:37.629Z,5.34
2022-12-25T06:09:04.832Z,5.36
2022-12-25T06:11:32.196Z,5.42
2022-12-25T06:13:59.460Z,5.44
2022-12-25T06:16:26.734Z,5.48
2022-12-25T06:18:54.017Z,5.54
2022-12-25T06:21:22.894Z,5.58
2022-12-25T06:23:50.288Z,5.62
2022-12-25T06:26:19.313Z,5.68
2022-12-25T06:28:47.284Z,5.67
2022-12-25T06:31:17.102Z,5.67
2022-12-25T06:33:45.006Z,5.71
2022-12-25T06:36:14.394Z,5.72
2022-12-25T06:38:43.225Z,5.74
2022-12-25T06:41:12.029Z,5.77
2022-12-25T06:43:39.372Z,5.74
2022-12-25T06:46:09.193Z,5.77
2022-12-25T06:48:37.813Z,5.84
2022-12-25T06:51:06.309Z,5.82
2022-12-25T06:53:39.703Z,5.81
2022-12-25T06:56:10.722Z,5.90
2022-12-25T06:58:37.959Z,5.91
2022-12-25T07:01:07.343Z,5.93
2022-12-25T07:03:34.572Z,5.95
2022-12-25T07:06:01.902Z,5.93
2022-12-25T07:08:29.105Z,6.00
2022-12-25T07:10:56.369Z,6.06
2022-12-25T07:13:26.208Z,6.08
2022-12-25T07:15:55.703Z,6.13
2022-12-25T07:18:23.059Z,6.14
2022-12-25T07:20:50.339Z,6.15
2022-12-25T07:23:17.561Z,6.14
2022-12-25T07:25:53.509Z,6.11
2022-12-25T07:28:20.859Z,6.19
2022-12-25T07:30:49.512Z,6.19
2022-12-25T07:33:17.083Z,6.25
2022-12-25T07:35:44.437Z,6.26
2022-12-25T07:38:11.952Z,6.30
2022-12-25T07:40:39.175Z,6.38
2022-12-25T07:43:06.488Z,6.41
2022-12-25T07:45:34.296Z,6.41
2022-12-25T07:48:05.858Z,6.45
2022-12-25T07:50:34.866Z,6.43
2022-12-25T07:53:02.088Z,6.49
2022-12-25T07:55:29.438Z,6.52
2022-12-25T07:57:56.598Z,6.51
2022-12-25T08:00:23.898Z,6.58
2022-12-25T08:02:51.271Z,6.61
2022-12-25T08:05:20.019Z,6.60
2022-12-25T08:07:49.982Z,6.63
2022-12-25T08:10:21.374Z,6.64
2022-12-25T08:12:48.605Z,6.61
2022-12-25T08:15:16.007Z,6.57
2022-12-25T08:17:43.244Z,6.57
2022-12-25T08:20:11.136Z,6.57
2022-12-25T08:22:39.688Z,6.58
2022-12-25T08:25:07.710Z,6.57
2022-12-25T08:27:35.429Z,6.56
2022-12-25T08:30:03.016Z,6.58
2022-12-25T08:32:32.126Z,6.61
2022-12-25T08:34:59.646Z,6.64
2022-12-25T08:37:29.343Z,6.71
2022-12-25T08:39:58.133Z,6.69
2022-12-25T08:42:25.331Z,6.64
2022-12-25T08:44:52.604Z,6.72
2022-12-25T08:47:19.820Z,6.76
2022-12-25T08:49:47.097Z,6.74
2022-12-25T08:52:14.592Z,6.81
2022-12-25T08:54:41.899Z,6.78
2022-12-25T08:57:10.835Z,6.79
2022-12-25T08:59:38.309Z,6.81
2022-12-25T09:02:05.715Z,6.83
2022-12-25T09:04:33.046Z,6.94
2022-12-25T09:07:00.188Z,6.91
2022-12-25T09:09:27.725Z,6.92
2022-12-25T09:11:54.966Z,6.89
2022-12-25T09:14:23.568Z,6.97
2022-12-25T09:16:50.851Z,6.93
2022-12-25T09:19:18.189Z,7.02
2022-12-25T09:21:45.488Z,7.03
2022-12-25T09:24:12.845Z,7.04
2022-12-25T09:26:40.183Z,7.03
2022-12-25T09:29:07.467Z,7.10
2022-12-25T09:31:36.060Z,7.08
2022-12-25T09:34:03.340Z,7.03
2022-12-25T09:36:30.651Z,7.05
2022-12-25T09:38:57.937Z,7.08
2022-12-25T09:41:30.572Z,7.12
2022-12-25T09:44:03.720Z,7.09
2022-12-25T09:46:41.844Z,7.16
2022-12-25T09:49:20.026Z,7.07
2022-12-25T09:51:52.343Z,7.13
2022-12-25T09:54:24.235Z,7.04
2022-12-25T09:56:52.098Z,7.04
2022-12-25T09:59:24.516Z,7.01
2022-12-25T10:02:26.656Z,6.99
2022-12-25T10:05:08.081Z,6.97
2022-12-25T10:07:43.907Z,7.10
2022-12-25T10:10:28.626Z,7.08
2022-12-25T10:13:06.824Z,7.16
2022-12-25T10:15:45.079Z,7.14
2022-12-25T10:18:36.972Z,7.11
2022-12-25T10:21:11.070Z,7.19
2022-12-25T10:23:45.518Z,7.13
2022-12-25T10:26:16.079Z,7.20
2022-12-25T10:28:45.342Z,7.20
2022-12-25T10:31:20.261Z,7.26
2022-12-25T10:33:51.013Z,7.26
2022-12-25T10:36:20.618Z,7.26
2022-12-25T10:38:48.280Z,7.31
2022-12-25T10:41:26.122Z,7.34
2022-12-25T10:43:55.106Z,7.33
2022-12-25T10:46:24.466Z,7.36
2022-12-25T10:48:55.973Z,7.34
2022-12-25T10:51:29.337Z,7.32
2022-12-25T10:53:56.839Z,7.34
2022-12-25T10:56:24.197Z,7.39
2022-12-25T10:58:51.452Z,7.36
2022-12-25T11:01:18.831Z,7.39
2022-12-25T11:03:52.047Z,7.43
2022-12-25T11:06:24.808Z,7.43
2022-12-25T11:08:55.030Z,7.44
2022-12-25T11:11:22.899Z,7.43
2022-12-25T11:13:52.579Z,7.47
2022-12-25T11:16:28.857Z,7.51
2022-12-25T11:18:56.576Z,7.50
2022-12-25T11:21:27.075Z,7.52
2022-12-25T11:23:58.861Z,7.61
2022-12-25T11:26:27.926Z,7.64
2022-12-25T11:28:56.152Z,7.71
2022-12-25T11:31:32.451Z,7.62
2022-12-25T11:34:05.368Z,7.72
2022-12-25T11:36:43.305Z,7.70
2022-12-25T11:39:19.944Z,7.73
2022-12-25T11:41:48.356Z,7.76
2022-12-25T11:44:27.803Z,7.78
2022-12-25T11:46:56.235Z,7.82
2022-12-25T11:49:24.149Z,7.82
2022-12-25T11:51:57.065Z,7.78
2022-12-25T11:54:27.862Z,7.85
2022-12-25T11:56:57.550Z,7.87
2022-12-25T11:59:29.408Z,7.83
2022-12-25T12:02:01.749Z,7.83
2022-12-25T12:04:42.229Z,7.89
2022-12-25T12:07:21.904Z,7.84
2022-12-25T12:09:58.114Z,7.88
2022-12-25T12:12:35.404Z,7.85
2022-12-25T12:15:12.384Z,7.87
2022-12-25T12:17:39.766Z,7.88
2022-12-25T12:20:26.741Z,7.94
2022-12-25T12:22:55.811Z,7.91
2022-12-25T12:25:23.377Z,7.90
2022-12-25T12:27:56.302Z,7.80
2022-12-25T12:30:29.016Z,7.76
2022-12-25T12:32:58.648Z,7.77
2022-12-25T12:35:28.779Z,7.73
2022-12-25T12:38:02.261Z,7.79
2022-12-25T12:40:32.935Z,7.82
2022-12-25T12:43:01.361Z,7.83
2022-12-25T12:45:32.315Z,7.83
2022-12-25T12:47:59.768Z,7.81
2022-12-25T12:50:30.954Z,7.81
2022-12-25T12:53:01.237Z,7.75
2022-12-25T12:55:30.771Z,7.75
2022-12-25T12:57:59.573Z,7.75
2022-12-25T13:00:35.734Z,7.78
2022-12-25T13:03:25.220Z,7.77
2022-12-25T13:06:00.789Z,7.74
2022-12-25T13:08:43.238Z,7.77
2022-12-25T13:11:17.573Z,7.76
2022-12-25T13:13:46.940Z,7.74
2022-12-25T13:16:21.769Z,7.77
2022-12-25T13:18:51.338Z,7.77
2022-12-25T13:21:22.567Z,7.83
2022-12-25T13:23:56.512Z,7.80
2022-12-25T13:26:23.856Z,7.80
2022-12-25T13:28:51.025Z,7.84
2022-12-25T13:31:20.555Z,7.86
2022-12-25T13:33:55.252Z,7.84
2022-12-25T13:36:22.642Z,7.80
2022-12-25T13:38:53.884Z,7.88
2022-12-25T13:41:24.069Z,7.84
2022-12-25T13:43:51.454Z,7.80
2022-12-25T13:46:26.320Z,7.83
2022-12-25T13:48:57.772Z,7.79
2022-12-25T13:51:25.039Z,7.79
2022-12-25T13:54:03.212Z,7.75
2022-12-25T13:56:31.315Z,7.77
2022-12-25T13:58:58.729Z,7.78
2022-12-25T14:01:27.819Z,7.79
2022-12-25T14:03:55.416Z,7.80
2022-12-25T14:06:26.276Z,7.78
2022-12-25T14:08:55.656Z,7.80
2022-12-25T14:11:26.967Z,7.80
2022-12-25T14:13:57.493Z,7.82
2022-12-25T14:16:25.640Z,7.82
2022-12-25T14:18:55.430Z,7.82
2022-12-25T14:21:27.732Z,7.85
2022-12-25T14:23:55.326Z,7.85
2022-12-25T14:26:26.040Z,7.83
2022-12-25T14:28:55.181Z,7.82
2022-12-25T14:31:24.455Z,7.83
2022-12-25T14:33:52.346Z,7.84
2022-12-25T14:36:19.991Z,7.86
2022-12-25T14:38:57.057Z,7.84
2022-12-25T14:41:29.789Z,7.85
2022-12-25T14:43:57.157Z,7.87
2022-12-25T14:46:25.825Z,7.83
2022-12-25T14:48:59.527Z,7.84
2022-12-25T14:51:27.826Z,7.84
2022-12-25T14:53:56.844Z,7.86
2022-12-25T14:56:27.337Z,7.86
2022-12-25T14:58:56.940Z,7.85
2022-12-25T15:01:29.370Z,7.86
2022-12-25T15:04:06.480Z,7.90
2022-12-25T15:06:33.817Z,7.90
2022-12-25T15:09:03.216Z,7.90
2022-12-25T15:11:32.431Z,7.87
2022-12-25T15:13:59.774Z,7.88
2022-12-25T15:16:29.456Z,7.87
2022-12-25T15:18:57.166Z,7.87
2022-12-25T15:21:27.160Z,7.89
2022-12-25T15:23:55.612Z,7.90
2022-12-25T15:26:23.115Z,7.89
2022-12-25T15:28:52.561Z,7.91
2022-12-25T15:31:23.404Z,7.89
2022-12-25T15:33:50.824Z,7.88
2022-12-25T15:36:18.386Z,7.90
2022-12-25T15:38:45.965Z,7.88
2022-12-25T15:41:14.699Z,7.87
2022-12-25T15:43:41.970Z,7.87
2022-12-25T15:46:10.681Z,7.92
2022-12-25T15:48:38.049Z,7.90
2022-12-25T15:51:05.656Z,7.90
2022-12-25T15:53:33.017Z,8.08
2022-12-25T15:56:00.197Z,7.95
2022-12-25T15:58:27.555Z,7.94
2022-12-25T16:00:54.827Z,7.89
2022-12-25T16:03:23.479Z,7.88
2022-12-25T16:05:50.762Z,7.91
2022-12-25T16:08:18.037Z,7.91
2022-12-25T16:10:45.335Z,7.92
2022-12-25T16:13:12.751Z,7.90
2022-12-25T16:15:40.774Z,7.89
2022-12-25T16:18:10.300Z,7.89
2022-12-25T16:20:38.961Z,7.90
2022-12-25T16:23:06.303Z,7.90
2022-12-25T16:25:33.520Z,7.88
2022-12-25T16:28:00.891Z,7.90
2022-12-25T16:30:28.070Z,7.91
2022-12-25T16:32:55.351Z,7.93
2022-12-25T16:35:22.594Z,7.93
2022-12-25T16:37:51.308Z,7.97
2022-12-25T16:40:18.520Z,7.99
2022-12-25T16:42:46.054Z,7.99
2022-12-25T16:45:13.905Z,8.04
2022-12-25T16:47:41.390Z,8.03
2022-12-25T16:50:09.439Z,8.01
2022-12-25T16:52:36.638Z,8.04
2022-12-25T16:55:06.077Z,8.03
2022-12-25T16:57:33.474Z,8.07
2022-12-25T17:00:00.799Z,8.10
2022-12-25T17:02:28.265Z,8.07
2022-12-25T17:04:55.660Z,8.12
2022-12-25T17:07:23.075Z,8.15
2022-12-25T17:09:50.370Z,8.17
2022-12-25T17:12:19.057Z,8.18
2022-12-25T17:14:46.313Z,8.16
2022-12-25T17:17:13.896Z,8.17
2022-12-25T17:19:41.715Z,8.17
2022-12-25T17:22:08.978Z,8.20
2022-12-25T17:24:36.568Z,8.20
2022-12-25T17:27:04.021Z,8.18
2022-12-25T17:29:32.617Z,8.20
2022-12-25T17:31:59.945Z,8.17
2022-12-25T17:34:27.375Z,8.25
2022-12-25T17:36:54.591Z,8.23
2022-12-25T17:39:21.792Z,8.21
2022-12-25T17:41:49.469Z,8.16
2022-12-25T17:44:16.773Z,8.21
2022-12-25T17:46:45.443Z,8.22
2022-12-25T17:49:15.346Z,8.23
2022-12-25T17:51:42.624Z,8.25
2022-12-25T17:54:10.336Z,8.29
2022-12-25T17:56:38.188Z,8.28
2022-12-25T17:59:06.771Z,8.40
2022-12-25T18:01:36.021Z,8.41
2022-12-25T18:04:06.507Z,8.39
2022-12-25T18:06:36.094Z,8.29
2022-12-25T18:09:04.130Z,8.32
2022-12-25T18:11:31.380Z,8.33
2022-12-25T18:14:01.519Z,8.31
2022-12-25T18:16:32.110Z,8.35
2022-12-25T18:18:59.704Z,8.34
2022-12-25T18:21:29.031Z,8.34
2022-12-25T18:23:56.658Z,8.32
2022-12-25T18:26:24.194Z,8.34
2022-12-25T18:28:51.449Z,8.33
2022-12-25T18:31:21.944Z,8.35
2022-12-25T18:33:49.552Z,8.37
2022-12-25T18:36:19.148Z,8.41
2022-12-25T18:38:48.627Z,8.38
2022-12-25T18:41:16.224Z,8.42
2022-12-25T18:43:52.748Z,8.45
2022-12-25T18:46:22.711Z,8.43
2022-12-25T18:48:50.052Z,8.44
2022-12-25T18:51:17.519Z,8.48
2022-12-25T18:53:44.808Z,8.48
2022-12-25T18:56:15.738Z,8.45
2022-12-25T18:58:43.571Z,8.45
2022-12-25T19:01:13.185Z,8.50
2022-12-25T19:03:41.096Z,8.51
2022-12-25T19:06:08.856Z,8.51
2022-12-25T19:08:36.199Z,8.49
2022-12-25T19:11:07.563Z,8.49
2022-12-25T19:13:36.239Z,8.52
2022-12-25T19:16:04.947Z,8.51
2022-12-25T19:18:32.389Z,8.52
2022-12-25T19:21:01.450Z,8.50
2022-12-25T19:23:28.720Z,8.50
2022-12-25T19:25:55.975Z,8.52
2022-12-25T19:28:23.294Z,8.54
2022-12-25T19:30:52.272Z,8.51
2022-12-25T19:33:19.636Z,8.60
2022-12-25T19:35:47.968Z,8.58
2022-12-25T19:38:15.631Z,8.59
2022-12-25T19:40:43.268Z,8.55
2022-12-25T19:43:10.549Z,8.56
2022-12-25T19:45:37.881Z,8.51
2022-12-25T19:48:06.866Z,8.63
2022-12-25T19:50:34.096Z,8.60
2022-12-25T19:53:01.413Z,8.56
2022-12-25T19:55:31.415Z,8.59
2022-12-25T19:57:58.687Z,8.58
2022-12-25T20:00:25.956Z,8.55
2022-12-25T20:02:53.430Z,8.54
2022-12-25T20:05:22.055Z,8.51
2022-12-25T20:07:49.440Z,8.44
2022-12-25T20:10:16.869Z,8.47
2022-12-25T20:12:44.226Z,8.44
2022-12-25T20:15:11.505Z,8.44
2022-12-25T20:17:38.777Z,8.37
2022-12-25T20:20:06.932Z,8.27
2022-12-25T20:22:35.874Z,8.34
2022-12-25T20:25:03.531Z,8.37
2022-12-25T20:27:30.796Z,8.31
2022-12-25T20:29:58.059Z,8.33
2022-12-25T20:32:25.469Z,8.32
2022-12-25T20:34:52.849Z,8.32
2022-12-25T20:37:20.156Z,8.28
2022-12-25T20:39:48.797Z,8.28
2022-12-25T20:42:16.133Z,8.31
2022-12-25T20:44:43.318Z,8.31
2022-12-25T20:47:12.535Z,8.26
2022-12-25T20:49:39.827Z,8.29
2022-12-25T20:52:07.316Z,8.29
2022-12-25T20:54:34.515Z,8.27
2022-12-25T20:57:03.293Z,8.26
2022-12-25T20:59:36.957Z,8.21
2022-12-25T21:02:05.068Z,8.18
2022-12-25T21:04:32.493Z,8.18
2022-12-25T21:06:59.781Z,8.28
2022-12-25T21:09:27.002Z,8.18
2022-12-25T21:11:54.455Z,8.23
2022-12-25T21:14:23.038Z,8.22
2022-12-25T21:16:50.393Z,8.30
2022-12-25T21:19:17.829Z,8.26
2022-12-25T21:21:45.110Z,8.20
2022-12-25T21:24:12.338Z,8.21
2022-12-25T21:26:44.413Z,8.30
2022-12-25T21:29:16.731Z,8.29
2022-12-25T21:31:45.475Z,8.27
2022-12-25T21:34:12.803Z,8.22
2022-12-25T21:36:40.014Z,8.31
2022-12-25T21:39:08.419Z,8.32
2022-12-25T21:41:38.275Z,8.30
2022-12-25T21:44:06.632Z,8.27
2022-12-25T21:46:34.304Z,8.30
2022-12-25T21:49:03.119Z,8.33
2022-12-25T21:51:32.248Z,8.34
2022-12-25T21:54:00.177Z,8.36
2022-12-25T21:56:28.542Z,8.41
2022-12-25T21:58:55.821Z,8.40
2022-12-25T22:01:25.650Z,8.34
2022-12-25T22:03:53.099Z,8.33
2022-12-25T22:06:22.028Z,8.34
2022-12-25T22:08:49.483Z,8.37
2022-12-25T22:11:17.122Z,8.29
2022-12-25T22:13:44.340Z,8.35
2022-12-25T22:16:11.659Z,8.43
2022-12-25T22:18:39.036Z,8.48
2022-12-25T22:21:06.364Z,8.53
2022-12-25T22:23:34.991Z,8.41
2022-12-25T22:26:04.778Z,8.36
2022-12-25T22:28:32.073Z,8.47
2022-12-25T22:31:02.860Z,8.37
2022-12-25T22:33:30.812Z,8.35
2022-12-25T22:36:01.656Z,8.38
2022-12-25T22:38:29.088Z,8.39
2022-12-25T22:40:57.852Z,8.34
2022-12-25T22:43:37.091Z,8.39
2022-12-25T22:46:12.448Z,8.34
2022-12-25T22:48:39.740Z,8.31
2022-12-25T22:51:07.107Z,8.31
2022-12-25T22:53:34.527Z,8.23
2022-12-25T22:56:03.387Z,8.29
2022-12-25T22:58:30.568Z,8.24
2022-12-25T23:00:57.883Z,8.18
2022-12-25T23:03:25.295Z,8.30
2022-12-25T23:05:56.234Z,8.26
2022-12-25T23:08:24.130Z,8.28
2022-12-25T23:10:51.345Z,8.37
2022-12-25T23:13:20.155Z,8.33
2022-12-25T23:15:47.435Z,8.25
2022-12-25T23:18:14.775Z,8.26
2022-12-25T23:20:42.034Z,8.26
2022-12-25T23:23:14.088Z,8.26
2022-12-25T23:25:41.385Z,8.23
2022-12-25T23:28:08.585Z,8.24
2022-12-25T23:30:40.542Z,8.30
2022-12-25T23:33:07.982Z,8.28
2022-12-25T23:35:35.227Z,8.21
2022-12-25T23:38:02.450Z,8.16
2022-12-25T23:40:29.662Z,8.22
2022-12-25T23:42:58.391Z,8.14
2022-12-25T23:45:25.718Z,8.16
2022-12-25T23:47:54.341Z,8.19
2022-12-25T23:50:21.703Z,8.09
2022-12-25T23:52:48.899Z,8.12
2022-12-25T23:55:16.324Z,8.22
2022-12-25T23:57:43.553Z,8.13
